Time;durP1;ratioP1;P1;durP2;ratioP2;P2;SDS_P1;SDS_P2;PMS_P1;PMS_P2;Temp;Humidity;BMP_temperature;BMP_pressure;BME280_temperature;BME280_humidity;BME280_pressure;Samples;Min_cycle;Max_cycle;Signal;HPM_P1;HPM_P2
2022/05/15 00:00:42;;;;;;;4.05;2.45;;;;;;;;;;2131618;27;20043;-47
2022/05/15 00:01:43;;;;;;;3.53;2.40;;;;;;;;;;2131622;27;20049;-47
2022/05/15 00:02:45;;;;;;;4.53;2.40;;;;;;;;;;2131584;27;20070;-47
2022/05/15 00:03:47;;;;;;;6.70;2.95;;;;;;;;;;2131647;27;20047;-47
2022/05/15 00:04:49;;;;;;;5.20;3.03;;;;;;;;;;2131559;27;20039;-48
2022/05/15 00:05:51;;;;;;;5.05;3.03;;;;;;;;;;2131700;27;20077;-47
2022/05/15 00:06:53;;;;;;;6.68;3.72;;;;;;;;;;2131547;27;20039;-47
2022/05/15 00:07:56;;;;;;;9.63;3.67;;;;;;;;;;2131581;27;20539;-47
2022/05/15 00:08:58;;;;;;;7.13;3.20;;;;;;;;;;2131557;27;20130;-47
2022/05/15 00:09:59;;;;;;;7.25;3.75;;;;;;;;;;2131744;27;20129;-46
2022/05/15 00:11:01;;;;;;;6.37;3.47;;;;;;;;;;2131689;27;20042;-47
2022/05/15 00:12:03;;;;;;;7.10;3.42;;;;;;;;;;2131457;27;20366;-47
2022/05/15 00:13:06;;;;;;;6.10;3.13;;;;;;;;;;2131422;27;20043;-46
2022/05/15 00:14:07;;;;;;;7.15;2.80;;;;;;;;;;2131347;27;20472;-46
2022/05/15 00:15:08;;;;;;;5.00;3.05;;;;;;;;;;2131727;27;20241;-46
2022/05/15 00:16:09;;;;;;;5.25;2.72;;;;;;;;;;2131478;27;20519;-47
2022/05/15 00:17:10;;;;;;;4.38;2.60;;;;;;;;;;2131529;27;20537;-47
2022/05/15 00:18:12;;;;;;;5.53;3.00;;;;;;;;;;2131472;27;20396;-46
2022/05/15 00:19:13;;;;;;;4.28;2.75;;;;;;;;;;2131281;27;20365;-47
2022/05/15 00:20:14;;;;;;;4.10;2.38;;;;;;;;;;2131748;27;20121;-59
2022/05/15 00:21:16;;;;;;;4.43;2.33;;;;;;;;;;2131590;27;20092;-59
2022/05/15 00:22:17;;;;;;;4.85;2.75;;;;;;;;;;2131605;27;20053;-59
2022/05/15 00:23:19;;;;;;;5.10;2.60;;;;;;;;;;2131448;27;20487;-59
2022/05/15 00:24:21;;;;;;;7.88;2.70;;;;;;;;;;2131325;27;20570;-59
2022/05/15 00:25:22;;;;;;;5.18;2.60;;;;;;;;;;2131412;27;20053;-59
2022/05/15 00:26:23;;;;;;;5.20;2.57;;;;;;;;;;2131501;27;20403;-58
2022/05/15 00:27:24;;;;;;;2.97;2.08;;;;;;;;;;2131361;27;20158;-58
2022/05/15 00:28:25;;;;;;;6.57;2.77;;;;;;;;;;2131445;27;20058;-58
2022/05/15 00:29:26;;;;;;;7.57;3.30;;;;;;;;;;2131419;27;20145;-58
2022/05/15 00:30:27;;;;;;;3.85;2.55;;;;;;;;;;2131572;27;20123;-59
2022/05/15 00:31:28;;;;;;;5.55;2.85;;;;;;;;;;2131436;27;20060;-58
2022/05/15 00:32:29;;;;;;;4.80;2.83;;;;;;;;;;2131435;27;20080;-59
2022/05/15 00:33:31;;;;;;;5.00;2.28;;;;;;;;;;2131313;27;20099;-59
2022/05/15 00:34:32;;;;;;;4.57;2.75;;;;;;;;;;2131219;27;20125;-58
2022/05/15 00:35:35;;;;;;;7.10;2.90;;;;;;;;;;2131506;27;20051;-59
2022/05/15 00:36:36;;;;;;;3.67;2.40;;;;;;;;;;2131465;27;20472;-58
2022/05/15 00:37:38;;;;;;;4.47;2.65;;;;;;;;;;2131356;27;20046;-58
2022/05/15 00:38:39;;;;;;;3.95;2.80;;;;;;;;;;2131229;27;20449;-58
2022/05/15 00:39:40;;;;;;;3.07;2.30;;;;;;;;;;2131342;27;20099;-58
2022/05/15 00:40:42;;;;;;;3.42;2.20;;;;;;;;;;2131436;27;20068;-58
2022/05/15 00:41:43;;;;;;;3.75;2.80;;;;;;;;;;2131453;27;20049;-58
2022/05/15 00:42:44;;;;;;;3.95;2.10;;;;;;;;;;2131328;27;20133;-58
2022/05/15 00:43:47;;;;;;;3.77;2.30;;;;;;;;;;2131423;27;20049;-58
2022/05/15 00:44:48;;;;;;;2.72;2.38;;;;;;;;;;2131295;27;20613;-58
2022/05/15 00:45:49;;;;;;;6.20;2.97;;;;;;;;;;2131266;27;20053;-58
2022/05/15 00:46:50;;;;;;;5.65;3.05;;;;;;;;;;2131303;27;20387;-58
2022/05/15 00:47:51;;;;;;;6.13;3.10;;;;;;;;;;2131230;27;20049;-58
2022/05/15 00:48:53;;;;;;;4.38;2.75;;;;;;;;;;2131035;27;20423;-58
2022/05/15 00:49:54;;;;;;;3.50;2.70;;;;;;;;;;2131288;27;20030;-58
2022/05/15 00:50:55;;;;;;;4.15;2.60;;;;;;;;;;2131235;27;20539;-58
2022/05/15 00:51:58;;;;;;;5.10;3.17;;;;;;;;;;2131256;27;20486;-58
2022/05/15 00:53:02;;;;;;;4.18;2.60;;;;;;;;;;2131404;27;20043;-58
2022/05/15 00:54:06;;;;;;;5.65;3.00;;;;;;;;;;2131277;27;20346;-58
2022/05/15 00:55:09;;;;;;;4.50;3.03;;;;;;;;;;2131355;27;20134;-58
2022/05/15 00:56:12;;;;;;;4.65;2.95;;;;;;;;;;2131343;27;20126;-58
2022/05/15 00:57:15;;;;;;;3.47;2.95;;;;;;;;;;2131388;27;20053;-58
2022/05/15 00:58:18;;;;;;;3.88;2.83;;;;;;;;;;2131331;27;20052;-58
2022/05/15 00:59:21;;;;;;;4.88;2.85;;;;;;;;;;2131105;27;20659;-58
2022/05/15 01:00:23;;;;;;;4.38;2.85;;;;;;;;;;2131118;27;20048;-58
2022/05/15 01:01:25;;;;;;;5.70;3.22;;;;;;;;;;2131032;27;20121;-58
2022/05/15 01:02:27;;;;;;;4.47;2.78;;;;;;;;;;2130940;27;20046;-58
2022/05/15 01:03:29;;;;;;;5.95;2.85;;;;;;;;;;2131363;27;20043;-58
2022/05/15 01:04:31;;;;;;;4.40;3.00;;;;;;;;;;2131113;27;20482;-58
2022/05/15 01:05:33;;;;;;;6.82;3.22;;;;;;;;;;2131256;27;20578;-58
2022/05/15 01:06:35;;;;;;;3.13;2.55;;;;;;;;;;2131314;27;20053;-58
2022/05/15 01:07:36;;;;;;;7.15;2.65;;;;;;;;;;2131205;27;20171;-58
2022/05/15 01:08:38;;;;;;;3.92;2.63;;;;;;;;;;2131209;27;20129;-58
2022/05/15 01:09:39;;;;;;;3.85;2.60;;;;;;;;;;2131172;27;20051;-58
2022/05/15 01:10:41;;;;;;;4.35;3.17;;;;;;;;;;2131137;27;20052;-58
2022/05/15 01:11:44;;;;;;;6.28;2.38;;;;;;;;;;2131250;27;20126;-58
2022/05/15 01:12:45;;;;;;;6.57;3.35;;;;;;;;;;2131042;27;20134;-59
2022/05/15 01:13:48;;;;;;;5.53;2.77;;;;;;;;;;2131146;27;20054;-59
2022/05/15 01:14:50;;;;;;;4.60;2.90;;;;;;;;;;2131140;27;20047;-59
2022/05/15 01:15:51;;;;;;;4.57;2.97;;;;;;;;;;2131221;27;20144;-58
2022/05/15 01:16:52;;;;;;;5.85;2.75;;;;;;;;;;2131091;27;20035;-59
2022/05/15 01:17:54;;;;;;;6.13;3.60;;;;;;;;;;2131201;27;20042;-58
2022/05/15 01:18:55;;;;;;;5.80;3.05;;;;;;;;;;2130817;27;20078;-59
2022/05/15 01:20:00;;;;;;;4.95;2.97;;;;;;;;;;2131089;27;20620;-58
2022/05/15 01:21:04;;;;;;;4.13;3.33;;;;;;;;;;2131096;27;20133;-58
2022/05/15 01:22:06;;;;;;;4.82;2.58;;;;;;;;;;2131216;27;20137;-58
2022/05/15 01:23:07;;;;;;;3.88;3.10;;;;;;;;;;2131037;27;20047;-58
2022/05/15 01:24:08;;;;;;;6.97;2.93;;;;;;;;;;2131202;27;20047;-58
2022/05/15 01:25:11;;;;;;;7.63;3.13;;;;;;;;;;2131044;27;20900;-58
2022/05/15 01:26:13;;;;;;;5.25;3.35;;;;;;;;;;2131003;27;20534;-58
2022/05/15 01:27:14;;;;;;;3.78;2.97;;;;;;;;;;2131163;27;20129;-58
2022/05/15 01:28:16;;;;;;;6.80;3.40;;;;;;;;;;2130992;27;20074;-58
2022/05/15 01:29:18;;;;;;;3.45;2.90;;;;;;;;;;2131133;27;20050;-58
2022/05/15 01:30:19;;;;;;;4.22;3.08;;;;;;;;;;2131100;27;20138;-58
2022/05/15 01:31:20;;;;;;;4.15;3.00;;;;;;;;;;2130916;27;20058;-58
2022/05/15 01:32:21;;;;;;;5.18;3.50;;;;;;;;;;2131091;27;20070;-58
2022/05/15 01:33:22;;;;;;;4.97;2.72;;;;;;;;;;2130973;27;20095;-58
2022/05/15 01:34:24;;;;;;;5.57;3.20;;;;;;;;;;2131014;27;20133;-59
2022/05/15 01:35:25;;;;;;;4.75;3.03;;;;;;;;;;2131112;27;20090;-58
2022/05/15 01:36:32;;;;;;;8.00;2.92;;;;;;;;;;2131135;27;20047;-58
2022/05/15 01:37:33;;;;;;;3.92;3.10;;;;;;;;;;2130963;27;20125;-58
2022/05/15 01:38:34;;;;;;;3.57;2.77;;;;;;;;;;2131089;27;20095;-58
2022/05/15 01:39:36;;;;;;;7.65;3.10;;;;;;;;;;2131006;27;20064;-58
2022/05/15 01:40:37;;;;;;;4.05;3.17;;;;;;;;;;2131154;27;20050;-58
2022/05/15 01:41:39;;;;;;;5.43;2.80;;;;;;;;;;2130968;27;20043;-58
2022/05/15 01:42:40;;;;;;;6.90;3.85;;;;;;;;;;2131310;27;20055;-47
2022/05/15 01:43:43;;;;;;;5.50;2.95;;;;;;;;;;2130906;27;20581;-47
2022/05/15 01:44:44;;;;;;;5.50;3.47;;;;;;;;;;2131062;27;20559;-47
2022/05/15 01:45:45;;;;;;;6.37;2.60;;;;;;;;;;2130740;27;20046;-46
2022/05/15 01:46:48;;;;;;;3.58;2.65;;;;;;;;;;2131125;27;20038;-47
2022/05/15 01:47:49;;;;;;;4.57;3.40;;;;;;;;;;2130937;27;20049;-46
2022/05/15 01:48:51;;;;;;;4.43;2.93;;;;;;;;;;2130795;27;20047;-46
2022/05/15 01:49:52;;;;;;;5.43;3.10;;;;;;;;;;2130941;27;20038;-48
2022/05/15 01:50:53;;;;;;;7.25;3.13;;;;;;;;;;2131133;27;20050;-58
2022/05/15 01:51:55;;;;;;;5.97;3.25;;;;;;;;;;2130918;27;20478;-58
2022/05/15 01:52:56;;;;;;;4.85;3.65;;;;;;;;;;2130840;27;20066;-58
2022/05/15 01:53:57;;;;;;;6.03;3.30;;;;;;;;;;2130930;27;20125;-58
2022/05/15 01:54:58;;;;;;;5.32;3.40;;;;;;;;;;2131179;27;20095;-59
2022/05/15 01:55:59;;;;;;;4.63;3.75;;;;;;;;;;2131007;27;20043;-58
2022/05/15 01:57:00;;;;;;;4.15;3.08;;;;;;;;;;2130953;27;20125;-59
2022/05/15 01:58:02;;;;;;;7.27;3.93;;;;;;;;;;2130932;27;20404;-59
2022/05/15 01:59:03;;;;;;;5.57;3.28;;;;;;;;;;2130965;27;20329;-58
2022/05/15 02:00:07;;;;;;;6.65;3.42;;;;;;;;;;2130848;27;20476;-58
2022/05/15 02:01:08;;;;;;;6.00;3.60;;;;;;;;;;2130828;27;20555;-58
2022/05/15 02:02:09;;;;;;;5.38;3.10;;;;;;;;;;2130862;27;20047;-59
2022/05/15 02:03:10;;;;;;;5.85;3.47;;;;;;;;;;2130994;27;20046;-59
2022/05/15 02:04:11;;;;;;;6.90;3.63;;;;;;;;;;2130808;27;20558;-59
2022/05/15 02:05:13;;;;;;;6.63;3.65;;;;;;;;;;2131142;27;20050;-59
2022/05/15 02:06:14;;;;;;;8.10;3.30;;;;;;;;;;2130872;27;20049;-59
2022/05/15 02:07:15;;;;;;;5.63;3.20;;;;;;;;;;2130965;27;20091;-59
2022/05/15 02:08:17;;;;;;;8.55;3.80;;;;;;;;;;2130948;27;20043;-58
2022/05/15 02:09:19;;;;;;;5.57;3.50;;;;;;;;;;2130909;27;20043;-59
2022/05/15 02:10:20;;;;;;;7.05;3.15;;;;;;;;;;2130784;27;20414;-59
2022/05/15 02:11:22;;;;;;;8.45;3.30;;;;;;;;;;2130837;27;20483;-59
2022/05/15 02:12:23;;;;;;;5.18;3.88;;;;;;;;;;2130957;27;20118;-59
2022/05/15 02:13:25;;;;;;;6.88;3.67;;;;;;;;;;2130705;27;20126;-59
2022/05/15 02:14:26;;;;;;;4.85;3.50;;;;;;;;;;2131912;27;20046;-59
2022/05/15 02:15:27;;;;;;;5.20;3.20;;;;;;;;;;2132299;27;20043;-59
2022/05/15 02:16:28;;;;;;;5.03;3.72;;;;;;;;;;2132473;27;20148;-59
2022/05/15 02:18:49;;;;;;;6.22;3.55;;;;;;;;;;2132080;27;20387;-59
2022/05/15 02:19:49;;;;;;;5.20;3.75;;;;;;;;;;2132285;27;20513;-59
2022/05/15 02:20:51;;;;;;;4.72;3.97;;;;;;;;;;2132411;27;20049;-59
2022/05/15 02:21:52;;;;;;;5.43;4.07;;;;;;;;;;2132301;27;20133;-59
2022/05/15 02:22:53;;;;;;;9.25;3.28;;;;;;;;;;2132241;27;20129;-59
2022/05/15 02:23:55;;;;;;;6.15;3.92;;;;;;;;;;2132151;27;20039;-58
2022/05/15 02:24:56;;;;;;;5.13;3.80;;;;;;;;;;2132303;27;20149;-58
2022/05/15 02:25:57;;;;;;;10.43;3.47;;;;;;;;;;2132239;27;20504;-59
2022/05/15 02:26:58;;;;;;;5.70;4.55;;;;;;;;;;2132118;27;20472;-58
2022/05/15 02:27:59;;;;;;;5.75;4.00;;;;;;;;;;2132306;27;20066;-59
2022/05/15 02:29:00;;;;;;;5.90;3.72;;;;;;;;;;2132160;27;20126;-58
2022/05/15 02:30:02;;;;;;;4.90;3.70;;;;;;;;;;2132355;27;20053;-58
2022/05/15 02:31:03;;;;;;;;;;;;;;;;;;2132687;27;20046;-58
2022/05/15 02:32:06;;;;;;;3.75;2.95;;;;;;;;;;2132372;27;19923;-59
2022/05/15 02:33:07;;;;;;;7.80;3.95;;;;;;;;;;2132260;27;20091;-59
2022/05/15 02:34:08;;;;;;;4.53;3.22;;;;;;;;;;2132217;27;20122;-58
2022/05/15 02:35:10;;;;;;;9.27;4.28;;;;;;;;;;2132295;27;20042;-58
2022/05/15 02:36:11;;;;;;;6.07;3.63;;;;;;;;;;2132237;27;20043;-58
2022/05/15 02:37:12;;;;;;;7.43;4.28;;;;;;;;;;2132501;27;20133;-58
2022/05/15 02:38:14;;;;;;;4.45;3.25;;;;;;;;;;2132108;27;20373;-58
2022/05/15 02:39:15;;;;;;;;;;;;;;;;;;2132668;27;20126;-58
2022/05/15 02:40:17;;;;;;;6.40;4.38;;;;;;;;;;2132107;27;19919;-58
2022/05/15 02:41:19;;;;;;;5.88;4.60;;;;;;;;;;2131949;27;20064;-58
2022/05/15 02:42:21;;;;;;;8.45;5.25;;;;;;;;;;2132192;27;20569;-58
2022/05/15 02:43:22;;;;;;;;;;;;;;;;;;2132562;27;20487;-58
2022/05/15 02:44:23;;;;;;;8.27;5.45;;;;;;;;;;2132108;27;19918;-58
2022/05/15 02:45:24;;;;;;;10.93;5.57;;;;;;;;;;2132114;27;20046;-58
2022/05/15 02:46:25;;;;;;;14.18;6.90;;;;;;;;;;2132029;27;20509;-58
2022/05/15 02:47:26;;;;;;;8.37;5.23;;;;;;;;;;2132124;27;20058;-58
2022/05/15 02:51:06;;;;;;;9.18;5.47;;;;;;;;;;2132198;27;20053;-58
2022/05/15 02:52:08;;;;;;;10.67;5.53;;;;;;;;;;2132252;27;20141;-58
2022/05/15 02:53:09;;;;;;;6.88;5.53;;;;;;;;;;2132150;27;20051;-58
2022/05/15 02:54:11;;;;;;;8.90;5.93;;;;;;;;;;2131954;27;20082;-58
2022/05/15 02:55:12;;;;;;;10.15;6.10;;;;;;;;;;2132107;27;20042;-58
2022/05/15 02:56:15;;;;;;;6.80;4.40;;;;;;;;;;2132275;27;20130;-58
2022/05/15 02:57:16;;;;;;;8.30;5.05;;;;;;;;;;2132164;27;20042;-58
2022/05/15 02:58:17;;;;;;;7.40;4.57;;;;;;;;;;2132006;27;20535;-58
2022/05/15 02:59:18;;;;;;;10.50;4.97;;;;;;;;;;2132064;27;20046;-58
2022/05/15 03:00:20;;;;;;;9.27;6.18;;;;;;;;;;2131957;27;20518;-58
2022/05/15 03:01:22;;;;;;;8.18;5.43;;;;;;;;;;2132090;27;20145;-58
2022/05/15 03:02:23;;;;;;;8.48;4.00;;;;;;;;;;2132128;27;20053;-58
2022/05/15 03:03:24;;;;;;;7.17;4.73;;;;;;;;;;2132220;27;20483;-58
2022/05/15 03:04:25;;;;;;;6.40;4.80;;;;;;;;;;2131865;27;20283;-58
2022/05/15 03:05:26;;;;;;;5.73;3.93;;;;;;;;;;2132137;27;20055;-58
2022/05/15 03:06:27;;;;;;;9.43;5.68;;;;;;;;;;2132079;27;20130;-58
2022/05/15 03:07:28;;;;;;;7.82;5.03;;;;;;;;;;2131991;27;20126;-58
2022/05/15 03:08:31;;;;;;;5.75;3.85;;;;;;;;;;2132033;27;20515;-58
2022/05/15 03:09:33;;;;;;;8.43;4.65;;;;;;;;;;2131933;27;20125;-58
2022/05/15 03:10:34;;;;;;;6.50;4.50;;;;;;;;;;2132095;27;20179;-58
2022/05/15 03:11:35;;;;;;;5.53;4.07;;;;;;;;;;2132127;27;20047;-46
2022/05/15 03:12:36;;;;;;;7.15;4.10;;;;;;;;;;2132011;27;20126;-47
2022/05/15 03:13:37;;;;;;;10.80;4.93;;;;;;;;;;2131859;27;20043;-46
2022/05/15 03:14:38;;;;;;;7.45;4.32;;;;;;;;;;2132098;27;20321;-46
2022/05/15 03:15:39;;;;;;;6.50;4.73;;;;;;;;;;2131916;27;20219;-47
2022/05/15 03:16:41;;;;;;;6.47;4.15;;;;;;;;;;2131905;27;20242;-46
2022/05/15 03:17:42;;;;;;;8.35;4.72;;;;;;;;;;2132112;27;20078;-47
2022/05/15 03:18:45;;;;;;;7.70;4.60;;;;;;;;;;2131565;27;20130;-46
2022/05/15 03:19:45;;;;;;;8.25;4.03;;;;;;;;;;2132088;27;20118;-46
2022/05/15 03:20:47;;;;;;;6.50;4.13;;;;;;;;;;2131921;27;20164;-46
2022/05/15 03:21:48;;;;;;;7.78;4.60;;;;;;;;;;2131982;27;20133;-46
2022/05/15 03:22:49;;;;;;;8.55;5.18;;;;;;;;;;2132047;27;20570;-58
2022/05/15 03:23:50;;;;;;;7.03;3.60;;;;;;;;;;2131734;27;20038;-59
2022/05/15 03:24:51;;;;;;;6.82;4.30;;;;;;;;;;2131522;27;20039;-59
2022/05/15 03:25:53;;;;;;;7.95;4.70;;;;;;;;;;2131935;27;20047;-59
2022/05/15 03:26:53;;;;;;;4.85;3.35;;;;;;;;;;2131875;27;20122;-58
2022/05/15 03:27:55;;;;;;;7.93;5.10;;;;;;;;;;2131993;27;20035;-59
2022/05/15 03:28:56;;;;;;;5.68;3.90;;;;;;;;;;2131693;27;20129;-59
2022/05/15 03:29:57;;;;;;;12.77;4.00;;;;;;;;;;2131813;27;20133;-58
2022/05/15 03:30:58;;;;;;;6.82;4.40;;;;;;;;;;2131815;27;20188;-58
2022/05/15 03:31:59;;;;;;;9.05;4.75;;;;;;;;;;2131986;27;20167;-59
2022/05/15 03:33:01;;;;;;;6.65;4.20;;;;;;;;;;2131910;27;20725;-59
2022/05/15 03:34:02;;;;;;;8.02;5.35;;;;;;;;;;2131619;27;20066;-58
2022/05/15 03:35:04;;;;;;;7.70;4.22;;;;;;;;;;2131904;27;20171;-59
2022/05/15 03:36:10;;;;;;;7.80;4.80;;;;;;;;;;2131840;27;20045;-59
2022/05/15 03:37:11;;;;;;;7.43;4.18;;;;;;;;;;2131772;27;20562;-59
2022/05/15 03:38:12;;;;;;;7.63;5.23;;;;;;;;;;2131605;27;20050;-58
2022/05/15 03:39:15;;;;;;;7.68;4.93;;;;;;;;;;2131741;27;20051;-58
2022/05/15 03:40:17;;;;;;;12.25;5.05;;;;;;;;;;2131736;27;20147;-58
2022/05/15 03:41:18;;;;;;;7.07;4.85;;;;;;;;;;2132122;27;20039;-58
2022/05/15 03:42:20;;;;;;;7.17;4.30;;;;;;;;;;2132108;27;20047;-58
2022/05/15 03:43:21;;;;;;;7.80;5.35;;;;;;;;;;2131670;27;20413;-59
2022/05/15 03:44:22;;;;;;;11.77;5.30;;;;;;;;;;2131839;27;20161;-59
2022/05/15 03:45:23;;;;;;;9.95;5.60;;;;;;;;;;2131716;27;20049;-59
2022/05/15 03:46:24;;;;;;;7.05;4.85;;;;;;;;;;2131687;27;20101;-58
2022/05/15 03:47:26;;;;;;;8.65;6.00;;;;;;;;;;2131792;27;20103;-59
2022/05/15 03:48:27;;;;;;;8.80;5.60;;;;;;;;;;2131684;27;20512;-58
2022/05/15 03:49:28;;;;;;;4.97;3.70;;;;;;;;;;2131827;27;20133;-59
2022/05/15 03:50:29;;;;;;;9.65;6.03;;;;;;;;;;2131849;27;20362;-59
2022/05/15 03:51:30;;;;;;;9.80;4.30;;;;;;;;;;2131864;27;20134;-59
2022/05/15 03:52:31;;;;;;;12.13;5.60;;;;;;;;;;2131796;27;20130;-58
2022/05/15 03:53:32;;;;;;;7.88;4.65;;;;;;;;;;2131662;27;20083;-58
2022/05/15 03:54:33;;;;;;;7.80;5.53;;;;;;;;;;2131878;27;20171;-58
2022/05/15 03:55:35;;;;;;;12.32;5.50;;;;;;;;;;2131793;27;20050;-58
2022/05/15 03:56:52;;;;;;;9.98;5.50;;;;;;;;;;2131633;27;20407;-58
2022/05/15 03:57:55;;;;;;;9.82;5.60;;;;;;;;;;2131577;27;20518;-58
2022/05/15 03:58:56;;;;;;;10.05;6.63;;;;;;;;;;2131506;27;20042;-58
2022/05/15 03:59:58;;;;;;;9.77;5.37;;;;;;;;;;2131935;27;20084;-58
2022/05/15 04:00:58;;;;;;;7.90;5.28;;;;;;;;;;2131447;27;20055;-58
2022/05/15 04:02:01;;;;;;;6.33;4.43;;;;;;;;;;2131760;27;20066;-58
2022/05/15 04:03:02;;;;;;;7.18;5.20;;;;;;;;;;2131721;27;20051;-59
2022/05/15 04:04:04;;;;;;;10.70;5.00;;;;;;;;;;2131541;27;20130;-58
2022/05/15 04:05:06;;;;;;;7.07;5.03;;;;;;;;;;2131821;27;20075;-59
2022/05/15 04:06:06;;;;;;;7.47;4.65;;;;;;;;;;2131531;27;20042;-58
2022/05/15 04:07:08;;;;;;;9.55;4.57;;;;;;;;;;2131722;27;20054;-59
2022/05/15 04:08:10;;;;;;;8.35;4.82;;;;;;;;;;2131529;27;20574;-58
2022/05/15 04:09:11;;;;;;;7.55;4.68;;;;;;;;;;2131692;27;20053;-58
2022/05/15 04:10:13;;;;;;;8.20;4.85;;;;;;;;;;2131614;27;20358;-58
2022/05/15 04:11:16;;;;;;;6.75;4.53;;;;;;;;;;2131597;27;20487;-58
2022/05/15 04:12:17;;;;;;;;;;;;;;;;;;2132058;27;20154;-58
2022/05/15 04:13:18;;;;;;;8.63;4.13;;;;;;;;;;2131467;27;20067;-58
2022/05/15 04:14:20;;;;;;;5.03;4.22;;;;;;;;;;2131351;27;20388;-58
2022/05/15 04:15:21;;;;;;;6.97;4.28;;;;;;;;;;2131784;27;20445;-58
2022/05/15 04:16:23;;;;;;;8.13;3.43;;;;;;;;;;2131600;27;20151;-58
2022/05/15 04:17:24;;;;;;;7.00;4.57;;;;;;;;;;2131465;27;20057;-59
2022/05/15 04:18:25;;;;;;;6.93;4.18;;;;;;;;;;2131492;27;20081;-59
2022/05/15 04:19:26;;;;;;;8.43;4.88;;;;;;;;;;2131453;27;20604;-46
2022/05/15 04:20:28;;;;;;;6.67;4.33;;;;;;;;;;2131528;27;20058;-46
2022/05/15 04:21:30;;;;;;;6.28;4.35;;;;;;;;;;2131477;27;20122;-46
2022/05/15 04:22:31;;;;;;;;;;;;;;;;;;2131897;27;20138;-46
2022/05/15 04:23:32;;;;;;;6.45;4.43;;;;;;;;;;2131364;27;20466;-46
2022/05/15 04:24:34;;;;;;;6.70;3.50;;;;;;;;;;2131458;27;20043;-46
2022/05/15 04:25:35;;;;;;;8.13;4.22;;;;;;;;;;2131498;27;20049;-46
2022/05/15 04:26:37;;;;;;;8.32;4.38;;;;;;;;;;2131593;27;20130;-48
2022/05/15 04:27:38;;;;;;;6.13;4.47;;;;;;;;;;2131580;27;20098;-46
2022/05/15 04:28:39;;;;;;;4.90;3.25;;;;;;;;;;2131568;27;20053;-47
2022/05/15 04:29:40;;;;;;;6.53;4.47;;;;;;;;;;2131433;27;20046;-46
2022/05/15 04:30:41;;;;;;;7.78;4.32;;;;;;;;;;2131419;27;20050;-47
2022/05/15 04:31:42;;;;;;;5.97;3.47;;;;;;;;;;2131521;27;20047;-47
2022/05/15 04:32:44;;;;;;;5.25;3.42;;;;;;;;;;2131380;27;20130;-46
2022/05/15 04:33:45;;;;;;;6.63;4.38;;;;;;;;;;2131093;27;20507;-48
2022/05/15 04:34:46;;;;;;;6.75;3.90;;;;;;;;;;2131363;27;20039;-47
2022/05/15 04:35:47;;;;;;;4.73;3.57;;;;;;;;;;2131595;27;20242;-46
2022/05/15 04:36:48;;;;;;;9.25;4.07;;;;;;;;;;2130548;27;20130;-47
2022/05/15 04:37:51;;;;;;;8.95;4.82;;;;;;;;;;2131370;27;20045;-47
2022/05/15 04:38:52;;;;;;;7.20;3.88;;;;;;;;;;2131365;27;20049;-46
2022/05/15 04:39:53;;;;;;;7.53;4.00;;;;;;;;;;2131280;27;20403;-46
2022/05/15 04:40:54;;;;;;;7.65;4.38;;;;;;;;;;2131389;27;20121;-47
2022/05/15 04:42:00;;;;;;;7.00;3.40;;;;;;;;;;2131610;27;20041;-58
2022/05/15 04:43:00;;;;;;;5.43;4.22;;;;;;;;;;2131482;27;20366;-59
2022/05/15 04:44:02;;;;;;;5.87;3.63;;;;;;;;;;2131241;27;20502;-58
2022/05/15 04:45:03;;;;;;;7.03;3.90;;;;;;;;;;2131334;27;20462;-58
2022/05/15 04:46:07;;;;;;;5.22;4.47;;;;;;;;;;2131298;27;20078;-58
2022/05/15 04:47:08;;;;;;;5.50;4.05;;;;;;;;;;2131254;27;20496;-58
2022/05/15 04:48:09;;;;;;;5.80;3.90;;;;;;;;;;2131383;27;20180;-59
2022/05/15 04:49:11;;;;;;;6.68;3.92;;;;;;;;;;2131305;27;20078;-58
2022/05/15 04:50:13;;;;;;;5.85;3.85;;;;;;;;;;2131273;27;20046;-58
2022/05/15 04:51:14;;;;;;;6.90;4.00;;;;;;;;;;2131371;27;20047;-58
2022/05/15 04:52:15;;;;;;;9.57;4.30;;;;;;;;;;2131259;27;20487;-59
2022/05/15 04:53:16;;;;;;;6.65;4.30;;;;;;;;;;2131466;27;20070;-46
2022/05/15 04:54:17;;;;;;;5.57;3.87;;;;;;;;;;2131267;27;20053;-48
2022/05/15 04:55:19;;;;;;;7.05;4.10;;;;;;;;;;2131329;27;20201;-47
2022/05/15 04:56:20;;;;;;;6.60;3.97;;;;;;;;;;2131414;27;20129;-48
2022/05/15 04:57:22;;;;;;;6.28;4.28;;;;;;;;;;2131406;27;20090;-47
2022/05/15 04:58:23;;;;;;;5.72;4.05;;;;;;;;;;2131294;27;20049;-47
2022/05/15 04:59:24;;;;;;;5.22;3.55;;;;;;;;;;2131120;27;20550;-46
2022/05/15 05:00:26;;;;;;;4.83;3.60;;;;;;;;;;2131296;27;20042;-47
2022/05/15 05:01:27;;;;;;;6.80;4.25;;;;;;;;;;2131198;27;20050;-46
2022/05/15 05:02:28;;;;;;;5.47;3.47;;;;;;;;;;2131337;27;20126;-46
2022/05/15 05:03:29;;;;;;;5.13;3.97;;;;;;;;;;2131231;27;20138;-47
2022/05/15 05:04:31;;;;;;;4.03;3.40;;;;;;;;;;2131081;27;20061;-46
2022/05/15 05:05:33;;;;;;;7.20;4.07;;;;;;;;;;2131338;27;20314;-47
2022/05/15 05:06:34;;;;;;;6.85;3.75;;;;;;;;;;2131162;27;20441;-47
2022/05/15 05:07:35;;;;;;;7.95;3.58;;;;;;;;;;2131518;27;20070;-46
2022/05/15 05:08:36;;;;;;;6.97;3.15;;;;;;;;;;2131077;27;20055;-47
2022/05/15 05:09:37;;;;;;;5.97;3.85;;;;;;;;;;2131340;27;20126;-46
2022/05/15 05:10:39;;;;;;;7.97;3.43;;;;;;;;;;2131099;27;20050;-46
2022/05/15 05:11:40;;;;;;;5.13;4.00;;;;;;;;;;2131377;27;20187;-48
2022/05/15 05:12:41;;;;;;;10.95;3.97;;;;;;;;;;2131091;27;20497;-46
2022/05/15 05:13:43;;;;;;;5.72;3.13;;;;;;;;;;2131091;27;20086;-46
2022/05/15 05:14:44;;;;;;;4.82;3.63;;;;;;;;;;2131150;27;20073;-47
2022/05/15 05:15:47;;;;;;;5.65;3.53;;;;;;;;;;2130978;27;20063;-46
2022/05/15 05:16:48;;;;;;;4.70;3.20;;;;;;;;;;2131207;27;20045;-46
2022/05/15 05:17:49;;;;;;;6.27;3.60;;;;;;;;;;2131264;27;20502;-48
2022/05/15 05:18:50;;;;;;;5.07;3.40;;;;;;;;;;2126894;27;20045;-47
2022/05/15 05:19:52;;;;;;;7.43;3.30;;;;;;;;;;2122520;28;20122;-59
2022/05/15 05:20:53;;;;;;;5.38;3.60;;;;;;;;;;2122734;28;20126;-46
2022/05/15 05:21:54;;;;;;;5.30;2.97;;;;;;;;;;2122585;28;20051;-47
2022/05/15 05:22:55;;;;;;;5.07;3.33;;;;;;;;;;2122479;28;20535;-48
2022/05/15 05:23:56;;;;;;;6.13;3.20;;;;;;;;;;2122510;27;20100;-47
2022/05/15 05:24:57;;;;;;;6.18;3.47;;;;;;;;;;2122498;28;20395;-47
2022/05/15 05:25:58;;;;;;;7.72;3.30;;;;;;;;;;2122524;28;20045;-46
2022/05/15 05:26:59;;;;;;;5.38;3.45;;;;;;;;;;2122715;28;20413;-49
2022/05/15 05:28:01;;;;;;;5.50;3.28;;;;;;;;;;2122500;28;20579;-46
2022/05/15 05:29:02;;;;;;;;;;;;;;;;;;2122827;27;20177;-46
2022/05/15 05:30:04;;;;;;;6.53;3.20;;;;;;;;;;2123557;27;20361;-47
2022/05/15 05:31:05;;;;;;;4.97;2.60;;;;;;;;;;2130908;27;20057;-46
2022/05/15 05:32:07;;;;;;;5.88;3.40;;;;;;;;;;2131150;27;20051;-47
2022/05/15 05:33:08;;;;;;;5.72;2.90;;;;;;;;;;2131025;27;20554;-46
2022/05/15 05:34:09;;;;;;;6.83;3.30;;;;;;;;;;2130915;27;20137;-47
2022/05/15 05:35:11;;;;;;;3.88;2.78;;;;;;;;;;2131224;27;20503;-47
2022/05/15 05:36:12;;;;;;;4.50;3.28;;;;;;;;;;2131087;27;20042;-47
2022/05/15 05:37:15;;;;;;;5.90;3.15;;;;;;;;;;2131098;27;20049;-48
2022/05/15 05:38:16;;;;;;;3.83;2.70;;;;;;;;;;2130948;27;20467;-47
2022/05/15 05:39:17;;;;;;;6.25;3.40;;;;;;;;;;2131066;27;20047;-47
2022/05/15 05:40:19;;;;;;;6.50;2.85;;;;;;;;;;2130968;27;20483;-46
2022/05/15 05:41:20;;;;;;;5.70;2.72;;;;;;;;;;2131084;27;20055;-47
2022/05/15 05:42:21;;;;;;;6.72;2.65;;;;;;;;;;2131025;27;20183;-48
2022/05/15 05:43:23;;;;;;;6.93;3.10;;;;;;;;;;2131154;27;20046;-48
2022/05/15 05:44:24;;;;;;;4.55;2.92;;;;;;;;;;2131001;27;20046;-48
2022/05/15 05:45:28;;;;;;;4.30;3.00;;;;;;;;;;2131154;27;20204;-47
2022/05/15 05:46:29;;;;;;;4.45;2.83;;;;;;;;;;2131008;27;20134;-48
2022/05/15 05:47:31;;;;;;;5.45;2.45;;;;;;;;;;2130989;27;20463;-47
2022/05/15 05:48:32;;;;;;;5.47;3.15;;;;;;;;;;2132151;27;20043;-47
2022/05/15 05:49:33;;;;;;;4.03;2.83;;;;;;;;;;2132501;27;20043;-48
2022/05/15 05:50:34;;;;;;;5.13;2.37;;;;;;;;;;2132497;27;20054;-47
2022/05/15 05:51:35;;;;;;;5.90;3.15;;;;;;;;;;2132504;27;20042;-47
2022/05/15 05:52:36;;;;;;;5.70;2.60;;;;;;;;;;2132465;27;20051;-48
2022/05/15 05:53:37;;;;;;;3.70;2.67;;;;;;;;;;2132481;27;20365;-47
2022/05/15 05:54:38;;;;;;;3.57;2.90;;;;;;;;;;2132447;27;20060;-48
2022/05/15 05:55:39;;;;;;;4.72;2.85;;;;;;;;;;2132449;27;20126;-47
2022/05/15 05:56:40;;;;;;;4.43;2.43;;;;;;;;;;2132496;27;20510;-47
2022/05/15 05:57:42;;;;;;;4.57;2.60;;;;;;;;;;2132396;27;20499;-46
2022/05/15 05:58:45;;;;;;;4.70;3.25;;;;;;;;;;2132490;27;20133;-47
2022/05/15 05:59:45;;;;;;;4.30;3.00;;;;;;;;;;2132420;27;20134;-46
2022/05/15 06:00:47;;;;;;;4.80;2.77;;;;;;;;;;2132311;27;20050;-49
2022/05/15 06:01:47;;;;;;;5.10;2.65;;;;;;;;;;2132396;27;20137;-47
2022/05/15 06:02:49;;;;;;;4.93;2.93;;;;;;;;;;2132368;27;20201;-49
2022/05/15 06:05:09;;;;;;;6.53;2.78;;;;;;;;;;2132382;27;20115;-47
2022/05/15 06:06:10;;;;;;;5.53;2.97;;;;;;;;;;2132537;27;20051;-47
2022/05/15 06:07:12;;;;;;;5.67;2.97;;;;;;;;;;2132359;27;20317;-48
2022/05/15 06:08:13;;;;;;;6.82;3.22;;;;;;;;;;2132325;27;20495;-46
2022/05/15 06:09:14;;;;;;;5.33;2.80;;;;;;;;;;2132297;27;20081;-47
2022/05/15 06:10:16;;;;;;;8.23;2.85;;;;;;;;;;2132326;27;20472;-46
2022/05/15 06:11:17;;;;;;;4.82;2.80;;;;;;;;;;2132279;27;20058;-47
2022/05/15 06:12:19;;;;;;;4.70;3.05;;;;;;;;;;2132351;27;20042;-47
2022/05/15 06:13:20;;;;;;;;;;;;;;;;;;2132887;27;20057;-47
2022/05/15 06:14:22;;;;;;;5.88;2.75;;;;;;;;;;2132138;27;19923;-46
2022/05/15 06:15:23;;;;;;;5.60;3.05;;;;;;;;;;2132433;27;20051;-46